sensor_id;sensor_type;location;lat;lon;timestamp;temperature;humidity
40660;DHT22;26753;45.544;9.232;2022-10-31T00:00:51;17.70;99.90
40660;DHT22;26753;45.544;9.232;2022-10-31T00:03:17;17.70;99.90
40660;DHT22;26753;45.544;9.232;2022-10-31T00:05:47;17.60;99.90
40660;DHT22;26753;45.544;9.232;2022-10-31T00:08:14;17.60;99.90
40660;DHT22;26753;45.544;9.232;2022-10-31T00:10:40;17.50;99.90
40660;DHT22;26753;45.544;9.232;2022-10-31T00:13:07;17.40;99.90
40660;DHT22;26753;45.544;9.232;2022-10-31T00:15:34;17.40;99.90
40660;DHT22;26753;45.544;9.232;2022-10-31T00:18:00;17.30;99.90
40660;DHT22;26753;45.544;9.232;2022-10-31T00:20:25;17.30;99.90
40660;DHT22;26753;45.544;9.232;2022-10-31T00:22:51;17.30;99.90
40660;DHT22;26753;45.544;9.232;2022-10-31T00:25:16;17.30;99.90
40660;DHT22;26753;45.544;9.232;2022-10-31T00:27:42;17.30;99.90
40660;DHT22;26753;45.544;9.232;2022-10-31T00:30:08;17.30;99.90
40660;DHT22;26753;45.544;9.232;2022-10-31T00:32:34;17.30;99.90
40660;DHT22;26753;45.544;9.232;2022-10-31T00:34:59;17.30;99.90
40660;DHT22;26753;45.544;9.232;2022-10-31T00:37:26;17.20;99.90
40660;DHT22;26753;45.544;9.232;2022-10-31T00:39:52;17.20;99.90
40660;DHT22;26753;45.544;9.232;2022-10-31T00:42:17;17.20;99.90
40660;DHT22;26753;45.544;9.232;2022-10-31T00:44:43;17.30;99.90
40660;DHT22;26753;45.544;9.232;2022-10-31T00:47:08;17.10;99.90
40660;DHT22;26753;45.544;9.232;2022-10-31T00:49:34;17.00;99.90
40660;DHT22;26753;45.544;9.232;2022-10-31T00:52:00;17.00;99.90
40660;DHT22;26753;45.544;9.232;2022-10-31T00:54:25;17.00;99.90
40660;DHT22;26753;45.544;9.232;2022-10-31T00:56:51;17.00;99.90
40660;DHT22;26753;45.544;9.232;2022-10-31T00:59:16;17.00;99.90
40660;DHT22;26753;45.544;9.232;2022-10-31T01:01:42;16.90;99.90
40660;DHT22;26753;45.544;9.232;2022-10-31T01:04:08;16.90;99.90
40660;DHT22;26753;45.544;9.232;2022-10-31T01:06:33;16.80;99.90
40660;DHT22;26753;45.544;9.232;2022-10-31T01:08:59;16.80;99.90
40660;DHT22;26753;45.544;9.232;2022-10-31T01:11:25;16.80;99.90
40660;DHT22;26753;45.544;9.232;2022-10-31T01:13:52;16.80;99.90
40660;DHT22;26753;45.544;9.232;2022-10-31T01:16:20;16.80;99.90
40660;DHT22;26753;45.544;9.232;2022-10-31T01:18:46;16.70;99.90
40660;DHT22;26753;45.544;9.232;2022-10-31T01:21:20;16.70;99.90
40660;DHT22;26753;45.544;9.232;2022-10-31T01:23:46;16.70;99.90
40660;DHT22;26753;45.544;9.232;2022-10-31T01:26:16;16.70;99.90
40660;DHT22;26753;45.544;9.232;2022-10-31T01:28:53;16.60;99.90
40660;DHT22;26753;45.544;9.232;2022-10-31T01:31:20;16.70;99.90
40660;DHT22;26753;45.544;9.232;2022-10-31T01:33:47;16.60;99.90
40660;DHT22;26753;45.544;9.232;2022-10-31T01:36:25;16.60;99.90
40660;DHT22;26753;45.544;9.232;2022-10-31T01:38:53;16.60;99.90
40660;DHT22;26753;45.544;9.232;2022-10-31T01:41:22;16.50;99.90
40660;DHT22;26753;45.544;9.232;2022-10-31T01:44:01;16.50;99.90
40660;DHT22;26753;45.544;9.232;2022-10-31T01:46:34;16.60;99.90
40660;DHT22;26753;45.544;9.232;2022-10-31T01:49:04;16.50;99.90
40660;DHT22;26753;45.544;9.232;2022-10-31T01:51:34;16.50;99.90
40660;DHT22;26753;45.544;9.232;2022-10-31T01:54:04;16.50;99.90
40660;DHT22;26753;45.544;9.232;2022-10-31T01:56:31;16.40;99.90
40660;DHT22;26753;45.544;9.232;2022-10-31T01:59:01;16.50;99.90
40660;DHT22;26753;45.544;9.232;2022-10-31T02:01:27;16.40;99.90
40660;DHT22;26753;45.544;9.232;2022-10-31T02:03:54;16.50;99.90
40660;DHT22;26753;45.544;9.232;2022-10-31T02:09:06;16.50;99.90
40660;DHT22;26753;45.544;9.232;2022-10-31T02:11:33;16.70;99.90
40660;DHT22;26753;45.544;9.232;2022-10-31T02:14:00;16.40;99.90
40660;DHT22;26753;45.544;9.232;2022-10-31T02:16:26;16.40;99.90
40660;DHT22;26753;45.544;9.232;2022-10-31T02:18:52;16.40;99.90
40660;DHT22;26753;45.544;9.232;2022-10-31T02:21:42;16.40;99.90
40660;DHT22;26753;45.544;9.232;2022-10-31T02:32:43;16.30;99.90
40660;DHT22;26753;45.544;9.232;2022-10-31T02:35:13;16.30;99.90
40660;DHT22;26753;45.544;9.232;2022-10-31T02:40:26;16.30;99.90
40660;DHT22;26753;45.544;9.232;2022-10-31T02:43:06;16.30;99.90
40660;DHT22;26753;45.544;9.232;2022-10-31T02:45:50;16.50;99.90
40660;DHT22;26753;45.544;9.232;2022-10-31T02:48:20;16.30;99.90
40660;DHT22;26753;45.544;9.232;2022-10-31T02:51:08;16.20;99.90
40660;DHT22;26753;45.544;9.232;2022-10-31T02:53:35;16.20;99.90
40660;DHT22;26753;45.544;9.232;2022-10-31T02:56:05;16.20;99.90
40660;DHT22;26753;45.544;9.232;2022-10-31T02:58:36;16.20;99.90
40660;DHT22;26753;45.544;9.232;2022-10-31T03:12:04;16.30;99.90
40660;DHT22;26753;45.544;9.232;2022-10-31T03:14:42;16.20;99.90
40660;DHT22;26753;45.544;9.232;2022-10-31T03:17:15;16.20;99.90
40660;DHT22;26753;45.544;9.232;2022-10-31T03:19:47;16.20;99.90
40660;DHT22;26753;45.544;9.232;2022-10-31T03:22:25;16.20;99.90
40660;DHT22;26753;45.544;9.232;2022-10-31T03:24:52;16.20;99.90
40660;DHT22;26753;45.544;9.232;2022-10-31T03:27:23;16.20;99.90
40660;DHT22;26753;45.544;9.232;2022-10-31T03:29:51;16.20;99.90
40660;DHT22;26753;45.544;9.232;2022-10-31T03:32:25;16.10;99.90
40660;DHT22;26753;45.544;9.232;2022-10-31T03:34:55;16.20;99.90
40660;DHT22;26753;45.544;9.232;2022-10-31T03:37:24;16.10;99.90
40660;DHT22;26753;45.544;9.232;2022-10-31T03:39:51;16.40;99.90
40660;DHT22;26753;45.544;9.232;2022-10-31T03:42:22;16.20;99.90
40660;DHT22;26753;45.544;9.232;2022-10-31T03:45:03;16.10;99.90
40660;DHT22;26753;45.544;9.232;2022-10-31T03:47:31;16.00;99.90
40660;DHT22;26753;45.544;9.232;2022-10-31T03:49:57;16.00;99.90
40660;DHT22;26753;45.544;9.232;2022-10-31T03:52:33;16.10;99.90
40660;DHT22;26753;45.544;9.232;2022-10-31T03:55:10;16.00;99.90
40660;DHT22;26753;45.544;9.232;2022-10-31T03:57:53;16.10;99.90
40660;DHT22;26753;45.544;9.232;2022-10-31T04:00:20;16.10;99.90
40660;DHT22;26753;45.544;9.232;2022-10-31T04:03:15;16.10;99.90
40660;DHT22;26753;45.544;9.232;2022-10-31T04:05:45;16.00;99.90
40660;DHT22;26753;45.544;9.232;2022-10-31T04:08:20;16.00;99.90
40660;DHT22;26753;45.544;9.232;2022-10-31T04:10:48;16.00;99.90
40660;DHT22;26753;45.544;9.232;2022-10-31T04:13:19;15.90;99.90
40660;DHT22;26753;45.544;9.232;2022-10-31T04:15:46;15.90;99.90
40660;DHT22;26753;45.544;9.232;2022-10-31T04:18:13;15.90;99.90
40660;DHT22;26753;45.544;9.232;2022-10-31T04:20:41;15.90;99.90
40660;DHT22;26753;45.544;9.232;2022-10-31T04:23:20;16.00;99.90
40660;DHT22;26753;45.544;9.232;2022-10-31T04:25:45;16.00;99.90
40660;DHT22;26753;45.544;9.232;2022-10-31T04:28:11;16.00;99.90
40660;DHT22;26753;45.544;9.232;2022-10-31T04:30:37;16.00;99.90
40660;DHT22;26753;45.544;9.232;2022-10-31T04:33:03;16.00;99.90
40660;DHT22;26753;45.544;9.232;2022-10-31T04:35:28;16.00;99.90
40660;DHT22;26753;45.544;9.232;2022-10-31T04:37:54;16.00;99.90
40660;DHT22;26753;45.544;9.232;2022-10-31T04:40:19;15.90;99.90
40660;DHT22;26753;45.544;9.232;2022-10-31T04:42:45;15.90;99.90
40660;DHT22;26753;45.544;9.232;2022-10-31T04:45:11;16.50;99.90
40660;DHT22;26753;45.544;9.232;2022-10-31T04:47:36;16.00;99.90
40660;DHT22;26753;45.544;9.232;2022-10-31T04:50:02;16.00;99.90
40660;DHT22;26753;45.544;9.232;2022-10-31T04:52:28;16.00;99.90
40660;DHT22;26753;45.544;9.232;2022-10-31T04:54:54;16.00;99.90
40660;DHT22;26753;45.544;9.232;2022-10-31T04:57:19;15.90;99.90
40660;DHT22;26753;45.544;9.232;2022-10-31T04:59:45;15.90;99.90
40660;DHT22;26753;45.544;9.232;2022-10-31T05:02:11;16.00;99.90
40660;DHT22;26753;45.544;9.232;2022-10-31T05:04:36;16.00;99.90
40660;DHT22;26753;45.544;9.232;2022-10-31T05:07:02;16.00;99.90
40660;DHT22;26753;45.544;9.232;2022-10-31T05:09:27;16.00;99.90
40660;DHT22;26753;45.544;9.232;2022-10-31T05:11:53;16.00;99.90
40660;DHT22;26753;45.544;9.232;2022-10-31T05:14:19;15.90;99.90
40660;DHT22;26753;45.544;9.232;2022-10-31T05:16:44;16.00;99.90
40660;DHT22;26753;45.544;9.232;2022-10-31T05:19:10;16.00;99.90
40660;DHT22;26753;45.544;9.232;2022-10-31T05:21:36;16.00;99.90
40660;DHT22;26753;45.544;9.232;2022-10-31T05:24:02;16.00;99.90
40660;DHT22;26753;45.544;9.232;2022-10-31T05:26:28;15.90;99.90
40660;DHT22;26753;45.544;9.232;2022-10-31T05:28:53;15.90;99.90
40660;DHT22;26753;45.544;9.232;2022-10-31T05:31:19;15.90;99.90
40660;DHT22;26753;45.544;9.232;2022-10-31T05:33:45;15.90;99.90
40660;DHT22;26753;45.544;9.232;2022-10-31T05:36:10;15.80;99.90
40660;DHT22;26753;45.544;9.232;2022-10-31T05:38:36;15.80;99.90
40660;DHT22;26753;45.544;9.232;2022-10-31T05:41:01;15.80;99.90
40660;DHT22;26753;45.544;9.232;2022-10-31T05:43:28;15.80;99.90
40660;DHT22;26753;45.544;9.232;2022-10-31T05:45:55;15.80;99.90
40660;DHT22;26753;45.544;9.232;2022-10-31T05:48:21;15.80;99.90
40660;DHT22;26753;45.544;9.232;2022-10-31T05:50:48;15.80;99.90
40660;DHT22;26753;45.544;9.232;2022-10-31T05:53:14;15.80;99.90
40660;DHT22;26753;45.544;9.232;2022-10-31T05:55:40;15.80;99.90
40660;DHT22;26753;45.544;9.232;2022-10-31T05:58:06;15.70;99.90
40660;DHT22;26753;45.544;9.232;2022-10-31T06:00:32;15.70;99.90
40660;DHT22;26753;45.544;9.232;2022-10-31T06:03:02;15.70;99.90
40660;DHT22;26753;45.544;9.232;2022-10-31T06:05:29;15.70;99.90
40660;DHT22;26753;45.544;9.232;2022-10-31T06:07:55;15.70;99.90
40660;DHT22;26753;45.544;9.232;2022-10-31T06:10:21;15.70;99.90
40660;DHT22;26753;45.544;9.232;2022-10-31T06:12:48;15.80;99.90
40660;DHT22;26753;45.544;9.232;2022-10-31T06:15:14;15.80;99.90
40660;DHT22;26753;45.544;9.232;2022-10-31T06:17:40;15.80;99.90
40660;DHT22;26753;45.544;9.232;2022-10-31T06:20:06;16.00;99.90
40660;DHT22;26753;45.544;9.232;2022-10-31T06:22:32;15.90;99.90
40660;DHT22;26753;45.544;9.232;2022-10-31T06:24:58;15.90;99.90
40660;DHT22;26753;45.544;9.232;2022-10-31T06:27:24;15.90;99.90
40660;DHT22;26753;45.544;9.232;2022-10-31T06:29:49;15.90;99.90
40660;DHT22;26753;45.544;9.232;2022-10-31T06:32:15;16.00;99.90
40660;DHT22;26753;45.544;9.232;2022-10-31T06:34:41;16.00;99.90
40660;DHT22;26753;45.544;9.232;2022-10-31T06:37:09;16.00;99.90
40660;DHT22;26753;45.544;9.232;2022-10-31T06:39:35;16.20;99.90
40660;DHT22;26753;45.544;9.232;2022-10-31T06:42:01;16.20;99.90
40660;DHT22;26753;45.544;9.232;2022-10-31T06:44:26;16.30;99.90
40660;DHT22;26753;45.544;9.232;2022-10-31T06:46:52;16.20;99.90
40660;DHT22;26753;45.544;9.232;2022-10-31T06:49:18;16.30;99.90
40660;DHT22;26753;45.544;9.232;2022-10-31T06:51:47;16.30;99.90
40660;DHT22;26753;45.544;9.232;2022-10-31T06:54:13;16.40;99.90
40660;DHT22;26753;45.544;9.232;2022-10-31T06:56:39;16.50;99.90
40660;DHT22;26753;45.544;9.232;2022-10-31T06:59:04;16.60;99.90
40660;DHT22;26753;45.544;9.232;2022-10-31T07:01:30;16.60;99.90
40660;DHT22;26753;45.544;9.232;2022-10-31T07:03:56;16.80;99.90
40660;DHT22;26753;45.544;9.232;2022-10-31T07:06:21;16.80;99.90
40660;DHT22;26753;45.544;9.232;2022-10-31T07:08:47;16.90;99.90
40660;DHT22;26753;45.544;9.232;2022-10-31T07:11:13;17.00;99.90
40660;DHT22;26753;45.544;9.232;2022-10-31T07:13:40;17.10;99.90
40660;DHT22;26753;45.544;9.232;2022-10-31T07:16:06;17.20;99.90
40660;DHT22;26753;45.544;9.232;2022-10-31T07:18:37;17.30;99.90
40660;DHT22;26753;45.544;9.232;2022-10-31T07:21:03;17.50;99.90
40660;DHT22;26753;45.544;9.232;2022-10-31T07:23:29;17.60;99.90
40660;DHT22;26753;45.544;9.232;2022-10-31T07:26:00;17.70;99.90
40660;DHT22;26753;45.544;9.232;2022-10-31T07:28:26;17.90;99.90
40660;DHT22;26753;45.544;9.232;2022-10-31T07:30:54;18.00;99.90
40660;DHT22;26753;45.544;9.232;2022-10-31T07:33:20;18.10;99.90
40660;DHT22;26753;45.544;9.232;2022-10-31T07:35:46;18.30;99.90
40660;DHT22;26753;45.544;9.232;2022-10-31T07:38:13;18.30;99.90
40660;DHT22;26753;45.544;9.232;2022-10-31T07:40:59;18.40;99.90
40660;DHT22;26753;45.544;9.232;2022-10-31T07:43:25;18.90;99.90
40660;DHT22;26753;45.544;9.232;2022-10-31T07:45:52;18.50;99.90
40660;DHT22;26753;45.544;9.232;2022-10-31T07:48:18;18.50;99.90
40660;DHT22;26753;45.544;9.232;2022-10-31T07:50:44;18.60;99.90
40660;DHT22;26753;45.544;9.232;2022-10-31T07:53:12;18.70;99.90
40660;DHT22;26753;45.544;9.232;2022-10-31T07:55:38;18.80;99.90
40660;DHT22;26753;45.544;9.232;2022-10-31T07:58:06;18.90;99.90
40660;DHT22;26753;45.544;9.232;2022-10-31T08:00:33;19.10;99.90
40660;DHT22;26753;45.544;9.232;2022-10-31T08:03:06;19.10;99.90
40660;DHT22;26753;45.544;9.232;2022-10-31T08:05:33;19.20;99.90
40660;DHT22;26753;45.544;9.232;2022-10-31T08:07:59;19.30;99.90
40660;DHT22;26753;45.544;9.232;2022-10-31T08:10:26;19.30;99.90
40660;DHT22;26753;45.544;9.232;2022-10-31T08:13:00;19.40;99.90
40660;DHT22;26753;45.544;9.232;2022-10-31T08:15:26;19.40;99.90
40660;DHT22;26753;45.544;9.232;2022-10-31T08:17:51;19.50;99.90
40660;DHT22;26753;45.544;9.232;2022-10-31T08:20:17;19.60;99.90
40660;DHT22;26753;45.544;9.232;2022-10-31T08:22:51;19.50;99.90
40660;DHT22;26753;45.544;9.232;2022-10-31T08:25:17;19.60;99.90
40660;DHT22;26753;45.544;9.232;2022-10-31T08:27:43;19.70;99.90
40660;DHT22;26753;45.544;9.232;2022-10-31T08:30:13;19.70;99.90
40660;DHT22;26753;45.544;9.232;2022-10-31T08:32:39;19.80;99.90
40660;DHT22;26753;45.544;9.232;2022-10-31T08:35:04;19.80;99.90
40660;DHT22;26753;45.544;9.232;2022-10-31T08:37:30;20.00;99.90
40660;DHT22;26753;45.544;9.232;2022-10-31T08:39:56;20.00;99.90
40660;DHT22;26753;45.544;9.232;2022-10-31T08:42:21;20.10;99.90
40660;DHT22;26753;45.544;9.232;2022-10-31T08:44:47;20.10;99.90
40660;DHT22;26753;45.544;9.232;2022-10-31T08:47:13;19.90;99.90
40660;DHT22;26753;45.544;9.232;2022-10-31T08:49:39;20.00;99.90
40660;DHT22;26753;45.544;9.232;2022-10-31T08:52:04;20.20;99.90
40660;DHT22;26753;45.544;9.232;2022-10-31T08:54:30;20.20;99.90
40660;DHT22;26753;45.544;9.232;2022-10-31T08:56:56;20.40;99.90
40660;DHT22;26753;45.544;9.232;2022-10-31T08:59:21;20.40;99.90
40660;DHT22;26753;45.544;9.232;2022-10-31T09:01:47;20.60;99.90
40660;DHT22;26753;45.544;9.232;2022-10-31T09:04:13;20.70;99.90
40660;DHT22;26753;45.544;9.232;2022-10-31T09:06:39;20.70;99.90
40660;DHT22;26753;45.544;9.232;2022-10-31T09:09:04;20.90;99.90
40660;DHT22;26753;45.544;9.232;2022-10-31T09:11:31;21.00;99.90
40660;DHT22;26753;45.544;9.232;2022-10-31T09:13:56;21.20;99.90
40660;DHT22;26753;45.544;9.232;2022-10-31T09:16:22;21.30;99.90
40660;DHT22;26753;45.544;9.232;2022-10-31T09:18:47;21.50;99.90
40660;DHT22;26753;45.544;9.232;2022-10-31T09:21:13;21.60;99.90
40660;DHT22;26753;45.544;9.232;2022-10-31T09:23:39;21.60;99.90
40660;DHT22;26753;45.544;9.232;2022-10-31T09:26:05;21.70;99.90
40660;DHT22;26753;45.544;9.232;2022-10-31T09:28:32;21.80;99.90
40660;DHT22;26753;45.544;9.232;2022-10-31T09:30:57;22.00;99.90
40660;DHT22;26753;45.544;9.232;2022-10-31T09:33:23;22.20;99.90
40660;DHT22;26753;45.544;9.232;2022-10-31T09:35:49;22.20;99.90
40660;DHT22;26753;45.544;9.232;2022-10-31T09:38:17;22.40;99.90
40660;DHT22;26753;45.544;9.232;2022-10-31T09:41:15;22.40;99.90
40660;DHT22;26753;45.544;9.232;2022-10-31T09:52:21;22.90;99.90
40660;DHT22;26753;45.544;9.232;2022-10-31T09:57:25;23.30;99.90
40660;DHT22;26753;45.544;9.232;2022-10-31T09:59:51;23.40;99.90
40660;DHT22;26753;45.544;9.232;2022-10-31T10:15:49;24.20;99.90
40660;DHT22;26753;45.544;9.232;2022-10-31T10:18:38;24.20;99.90
40660;DHT22;26753;45.544;9.232;2022-10-31T10:24:01;24.50;99.90
40660;DHT22;26753;45.544;9.232;2022-10-31T10:26:37;24.60;99.90
40660;DHT22;26753;45.544;9.232;2022-10-31T10:29:33;24.80;99.90
40660;DHT22;26753;45.544;9.232;2022-10-31T10:32:13;24.90;99.90
40660;DHT22;26753;45.544;9.232;2022-10-31T10:37:36;25.00;99.90
40660;DHT22;26753;45.544;9.232;2022-10-31T10:40:18;25.00;99.90
40660;DHT22;26753;45.544;9.232;2022-10-31T10:43:24;25.10;99.90
40660;DHT22;26753;45.544;9.232;2022-10-31T10:49:17;25.30;99.90
40660;DHT22;26753;45.544;9.232;2022-10-31T10:51:51;25.40;99.90
40660;DHT22;26753;45.544;9.232;2022-10-31T10:54:41;25.30;99.90
40660;DHT22;26753;45.544;9.232;2022-10-31T11:00:36;25.30;99.90
40660;DHT22;26753;45.544;9.232;2022-10-31T11:03:03;25.50;99.90
40660;DHT22;26753;45.544;9.232;2022-10-31T11:08:28;25.80;99.90
40660;DHT22;26753;45.544;9.232;2022-10-31T11:11:10;25.90;99.90
40660;DHT22;26753;45.544;9.232;2022-10-31T11:13:41;26.10;99.90
40660;DHT22;26753;45.544;9.232;2022-10-31T11:16:10;26.30;99.90
40660;DHT22;26753;45.544;9.232;2022-10-31T11:18:42;26.40;99.90
40660;DHT22;26753;45.544;9.232;2022-10-31T11:21:24;26.60;99.90
40660;DHT22;26753;45.544;9.232;2022-10-31T11:24:02;26.90;99.90
40660;DHT22;26753;45.544;9.232;2022-10-31T11:26:28;27.30;99.90
40660;DHT22;26753;45.544;9.232;2022-10-31T11:28:58;27.30;99.90
40660;DHT22;26753;45.544;9.232;2022-10-31T11:31:25;27.30;99.90
40660;DHT22;26753;45.544;9.232;2022-10-31T11:34:02;27.70;99.90
40660;DHT22;26753;45.544;9.232;2022-10-31T11:36:35;27.60;99.90
40660;DHT22;26753;45.544;9.232;2022-10-31T11:39:04;27.40;99.90
40660;DHT22;26753;45.544;9.232;2022-10-31T11:41:36;27.20;99.90
40660;DHT22;26753;45.544;9.232;2022-10-31T11:46:57;27.00;99.90
40660;DHT22;26753;45.544;9.232;2022-10-31T11:49:36;27.60;99.90
40660;DHT22;26753;45.544;9.232;2022-10-31T11:52:16;27.20;99.90
40660;DHT22;26753;45.544;9.232;2022-10-31T11:57:32;27.90;99.90
40660;DHT22;26753;45.544;9.232;2022-10-31T12:00:03;28.60;99.90
40660;DHT22;26753;45.544;9.232;2022-10-31T12:02:29;29.10;99.90
40660;DHT22;26753;45.544;9.232;2022-10-31T12:07:46;28.80;99.90
40660;DHT22;26753;45.544;9.232;2022-10-31T12:10:13;28.60;99.90
40660;DHT22;26753;45.544;9.232;2022-10-31T12:12:48;28.60;99.90
40660;DHT22;26753;45.544;9.232;2022-10-31T12:15:35;28.50;99.90
40660;DHT22;26753;45.544;9.232;2022-10-31T12:19:03;32.30;97.60
40660;DHT22;26753;45.544;9.232;2022-10-31T12:21:34;32.90;93.90
40660;DHT22;26753;45.544;9.232;2022-10-31T12:32:35;43.80;65.30
40660;DHT22;26753;45.544;9.232;2022-10-31T12:38:15;45.70;58.40
40660;DHT22;26753;45.544;9.232;2022-10-31T12:43:41;46.60;56.80
40660;DHT22;26753;45.544;9.232;2022-10-31T12:46:25;47.10;54.80
40660;DHT22;26753;45.544;9.232;2022-10-31T12:54:07;44.40;54.90
40660;DHT22;26753;45.544;9.232;2022-10-31T12:56:51;43.00;55.30
40660;DHT22;26753;45.544;9.232;2022-10-31T13:02:22;44.40;55.00
40660;DHT22;26753;45.544;9.232;2022-10-31T13:07:34;39.60;56.30
40660;DHT22;26753;45.544;9.232;2022-10-31T13:12:43;37.00;59.00
40660;DHT22;26753;45.544;9.232;2022-10-31T13:18:56;44.00;56.20
40660;DHT22;26753;45.544;9.232;2022-10-31T13:21:29;47.70;53.10
40660;DHT22;26753;45.544;9.232;2022-10-31T13:24:00;49.20;52.00
40660;DHT22;26753;45.544;9.232;2022-10-31T13:26:43;49.70;50.70
40660;DHT22;26753;45.544;9.232;2022-10-31T13:31:54;50.30;50.20
40660;DHT22;26753;45.544;9.232;2022-10-31T13:34:30;50.90;49.90
40660;DHT22;26753;45.544;9.232;2022-10-31T13:42:31;53.50;47.40
40660;DHT22;26753;45.544;9.232;2022-10-31T13:45:53;54.20;46.30
40660;DHT22;26753;45.544;9.232;2022-10-31T13:51:00;54.00;45.90
40660;DHT22;26753;45.544;9.232;2022-10-31T13:53:56;54.40;45.50
40660;DHT22;26753;45.544;9.232;2022-10-31T13:59:23;54.80;44.70
40660;DHT22;26753;45.544;9.232;2022-10-31T14:01:59;55.20;44.40
40660;DHT22;26753;45.544;9.232;2022-10-31T14:04:46;55.50;44.10
40660;DHT22;26753;45.544;9.232;2022-10-31T14:07:16;55.70;43.70
40660;DHT22;26753;45.544;9.232;2022-10-31T14:15:22;54.20;43.40
40660;DHT22;26753;45.544;9.232;2022-10-31T14:20:31;54.10;43.00
40660;DHT22;26753;45.544;9.232;2022-10-31T14:22:58;53.70;43.20
40660;DHT22;26753;45.544;9.232;2022-10-31T14:25:33;54.10;43.30
40660;DHT22;26753;45.544;9.232;2022-10-31T14:28:02;53.90;43.00
40660;DHT22;26753;45.544;9.232;2022-10-31T14:30:30;52.60;43.20
40660;DHT22;26753;45.544;9.232;2022-10-31T14:33:12;52.40;43.10
40660;DHT22;26753;45.544;9.232;2022-10-31T14:36:01;52.90;43.20
40660;DHT22;26753;45.544;9.232;2022-10-31T14:38:50;52.30;43.10
40660;DHT22;26753;45.544;9.232;2022-10-31T14:44:36;45.50;44.80
40660;DHT22;26753;45.544;9.232;2022-10-31T14:47:40;42.40;46.60
40660;DHT22;26753;45.544;9.232;2022-10-31T14:55:48;36.00;52.30
40660;DHT22;26753;45.544;9.232;2022-10-31T14:58:20;35.20;53.50
40660;DHT22;26753;45.544;9.232;2022-10-31T15:00:47;34.60;54.40
40660;DHT22;26753;45.544;9.232;2022-10-31T15:03:28;34.10;55.10
40660;DHT22;26753;45.544;9.232;2022-10-31T15:05:58;33.70;55.80
40660;DHT22;26753;45.544;9.232;2022-10-31T15:08:34;33.30;56.50
40660;DHT22;26753;45.544;9.232;2022-10-31T15:11:13;33.00;57.30
40660;DHT22;26753;45.544;9.232;2022-10-31T15:13:49;32.60;57.90
40660;DHT22;26753;45.544;9.232;2022-10-31T15:16:21;32.20;58.50
40660;DHT22;26753;45.544;9.232;2022-10-31T15:19:10;31.80;59.00
40660;DHT22;26753;45.544;9.232;2022-10-31T15:21:42;31.50;59.50
40660;DHT22;26753;45.544;9.232;2022-10-31T15:24:11;31.10;59.80
40660;DHT22;26753;45.544;9.232;2022-10-31T15:26:40;30.90;60.50
40660;DHT22;26753;45.544;9.232;2022-10-31T15:29:13;30.60;61.00
40660;DHT22;26753;45.544;9.232;2022-10-31T15:31:48;30.30;61.50
40660;DHT22;26753;45.544;9.232;2022-10-31T15:34:19;30.10;62.20
40660;DHT22;26753;45.544;9.232;2022-10-31T15:36:48;29.70;62.90
40660;DHT22;26753;45.544;9.232;2022-10-31T15:39:16;29.50;63.30
40660;DHT22;26753;45.544;9.232;2022-10-31T15:41:51;29.20;64.00
40660;DHT22;26753;45.544;9.232;2022-10-31T15:47:00;28.70;65.40
40660;DHT22;26753;45.544;9.232;2022-10-31T15:49:48;28.60;66.90
40660;DHT22;26753;45.544;9.232;2022-10-31T15:52:25;28.40;67.30
40660;DHT22;26753;45.544;9.232;2022-10-31T15:55:03;28.10;67.70
40660;DHT22;26753;45.544;9.232;2022-10-31T15:57:29;28.00;68.70
40660;DHT22;26753;45.544;9.232;2022-10-31T15:59:56;27.70;69.40
40660;DHT22;26753;45.544;9.232;2022-10-31T16:02:28;27.40;70.20
40660;DHT22;26753;45.544;9.232;2022-10-31T16:04:59;27.30;71.00
40660;DHT22;26753;45.544;9.232;2022-10-31T16:07:27;27.10;71.60
40660;DHT22;26753;45.544;9.232;2022-10-31T16:10:02;27.00;72.20
40660;DHT22;26753;45.544;9.232;2022-10-31T16:12:42;26.90;72.70
40660;DHT22;26753;45.544;9.232;2022-10-31T16:15:15;26.80;73.60
40660;DHT22;26753;45.544;9.232;2022-10-31T16:17:44;26.60;74.40
40660;DHT22;26753;45.544;9.232;2022-10-31T16:20:36;26.40;75.30
40660;DHT22;26753;45.544;9.232;2022-10-31T16:23:05;26.00;76.60
40660;DHT22;26753;45.544;9.232;2022-10-31T16:25:58;25.70;77.80
40660;DHT22;26753;45.544;9.232;2022-10-31T16:28:26;25.30;79.40
40660;DHT22;26753;45.544;9.232;2022-10-31T16:30:54;25.20;80.50
40660;DHT22;26753;45.544;9.232;2022-10-31T16:33:31;25.10;81.40
40660;DHT22;26753;45.544;9.232;2022-10-31T16:35:59;25.00;82.40
40660;DHT22;26753;45.544;9.232;2022-10-31T16:38:27;25.00;83.10
40660;DHT22;26753;45.544;9.232;2022-10-31T16:40:53;24.90;83.80
40660;DHT22;26753;45.544;9.232;2022-10-31T16:43:20;25.00;84.50
40660;DHT22;26753;45.544;9.232;2022-10-31T16:45:51;25.00;85.20
40660;DHT22;26753;45.544;9.232;2022-10-31T16:48:20;24.80;86.20
40660;DHT22;26753;45.544;9.232;2022-10-31T16:50:47;24.70;87.30
40660;DHT22;26753;45.544;9.232;2022-10-31T16:53:14;24.40;88.40
40660;DHT22;26753;45.544;9.232;2022-10-31T16:56:18;24.30;89.60
40660;DHT22;26753;45.544;9.232;2022-10-31T16:58:45;24.20;90.50
40660;DHT22;26753;45.544;9.232;2022-10-31T17:01:12;24.20;91.00
40660;DHT22;26753;45.544;9.232;2022-10-31T17:03:38;24.30;91.50
40660;DHT22;26753;45.544;9.232;2022-10-31T17:06:04;24.20;92.10
40660;DHT22;26753;45.544;9.232;2022-10-31T17:08:30;24.00;92.70
40660;DHT22;26753;45.544;9.232;2022-10-31T17:10:57;23.80;93.00
40660;DHT22;26753;45.544;9.232;2022-10-31T17:13:27;23.60;93.40
40660;DHT22;26753;45.544;9.232;2022-10-31T17:15:55;23.60;94.00
40660;DHT22;26753;45.544;9.232;2022-10-31T17:18:22;23.60;94.40
40660;DHT22;26753;45.544;9.232;2022-10-31T17:20:49;23.70;94.90
40660;DHT22;26753;45.544;9.232;2022-10-31T17:23:16;23.70;94.70
40660;DHT22;26753;45.544;9.232;2022-10-31T17:25:42;23.60;94.30
40660;DHT22;26753;45.544;9.232;2022-10-31T17:28:12;23.60;94.30
40660;DHT22;26753;45.544;9.232;2022-10-31T17:30:39;23.50;94.70
40660;DHT22;26753;45.544;9.232;2022-10-31T17:33:06;23.40;96.00
40660;DHT22;26753;45.544;9.232;2022-10-31T17:35:32;23.20;96.50
40660;DHT22;26753;45.544;9.232;2022-10-31T17:37:57;23.00;97.70
40660;DHT22;26753;45.544;9.232;2022-10-31T17:40:23;22.90;98.40
40660;DHT22;26753;45.544;9.232;2022-10-31T17:42:53;22.80;99.10
40660;DHT22;26753;45.544;9.232;2022-10-31T17:45:21;22.70;99.90
40660;DHT22;26753;45.544;9.232;2022-10-31T17:47:48;22.70;99.90
40660;DHT22;26753;45.544;9.232;2022-10-31T17:50:18;22.70;99.90
40660;DHT22;26753;45.544;9.232;2022-10-31T17:52:44;22.70;99.90
40660;DHT22;26753;45.544;9.232;2022-10-31T17:55:11;22.70;99.90
40660;DHT22;26753;45.544;9.232;2022-10-31T17:57:37;22.60;99.90
40660;DHT22;26753;45.544;9.232;2022-10-31T18:00:05;22.60;99.90
40660;DHT22;26753;45.544;9.232;2022-10-31T18:02:30;22.60;99.90
40660;DHT22;26753;45.544;9.232;2022-10-31T18:04:56;22.60;99.90
40660;DHT22;26753;45.544;9.232;2022-10-31T18:07:22;22.60;99.90